createdAt,value
2018-07-08T00:00:03.094Z,17.16
2018-07-08T00:01:03.095Z,17.13
2018-07-08T00:02:03.089Z,17.09
2018-07-08T00:03:02.972Z,17.13
2018-07-08T00:04:02.963Z,17.02
2018-07-08T00:05:02.922Z,16.98
2018-07-08T00:06:02.925Z,16.92
2018-07-08T00:07:02.842Z,16.95
2018-07-08T00:08:02.802Z,16.86
2018-07-08T00:09:02.723Z,17.02
2018-07-08T00:10:02.725Z,16.86
2018-07-08T00:11:02.600Z,16.92
2018-07-08T00:12:02.605Z,16.91
2018-07-08T00:13:02.617Z,16.79
2018-07-08T00:14:02.483Z,16.82
2018-07-08T00:15:02.484Z,16.83
2018-07-08T00:16:02.484Z,16.77
2018-07-08T00:17:02.363Z,16.77
2018-07-08T00:18:02.363Z,16.77
2018-07-08T00:19:02.361Z,16.82
2018-07-08T00:20:02.241Z,16.69
2018-07-08T00:21:02.239Z,16.61
2018-07-08T00:22:02.243Z,16.61
2018-07-08T00:23:02.121Z,16.58
2018-07-08T00:24:02.122Z,16.61
2018-07-08T00:25:02.119Z,16.57
2018-07-08T00:26:01.999Z,16.47
2018-07-08T00:27:01.999Z,16.47
2018-07-08T00:28:02.008Z,16.41
2018-07-08T00:29:01.883Z,16.43
2018-07-08T00:30:01.877Z,16.44
2018-07-08T00:31:01.836Z,16.40
2018-07-08T00:32:01.759Z,16.43
2018-07-08T00:33:01.763Z,16.41
2018-07-08T00:34:01.718Z,16.40
2018-07-08T00:35:01.640Z,16.39
2018-07-08T00:36:01.639Z,16.37
2018-07-08T00:37:01.526Z,16.36
2018-07-08T00:38:01.516Z,16.36
2018-07-08T00:39:01.515Z,16.32
2018-07-08T00:40:01.401Z,16.39
2018-07-08T00:41:01.402Z,16.26
2018-07-08T00:42:01.397Z,16.26
2018-07-08T00:43:01.283Z,16.29
2018-07-08T00:44:01.278Z,16.24
2018-07-08T00:45:01.276Z,16.24
2018-07-08T00:46:01.156Z,16.26
2018-07-08T00:47:01.157Z,16.22
2018-07-08T00:48:01.153Z,16.24
2018-07-08T00:49:01.038Z,16.21
2018-07-08T00:50:01.038Z,16.16
2018-07-08T00:51:01.033Z,16.12
2018-07-08T00:52:00.914Z,16.10
2018-07-08T00:53:00.918Z,16.17
2018-07-08T00:54:00.910Z,16.16
2018-07-08T00:55:00.792Z,16.13
2018-07-08T00:56:00.792Z,16.17
2018-07-08T00:57:00.670Z,16.28
2018-07-08T00:58:00.673Z,16.13
2018-07-08T00:59:00.671Z,16.13
2018-07-08T01:00:00.553Z,16.13
2018-07-08T01:01:00.552Z,16.17
2018-07-08T01:02:00.554Z,16.13
2018-07-08T01:03:00.430Z,16.17
2018-07-08T01:04:00.430Z,16.24
2018-07-08T01:05:00.430Z,16.22
2018-07-08T01:06:00.310Z,16.16
2018-07-08T01:07:00.309Z,16.18
2018-07-08T01:08:00.312Z,16.16
2018-07-08T01:09:00.191Z,16.21
2018-07-08T01:10:00.191Z,16.18
2018-07-08T01:11:00.193Z,16.12
2018-07-08T01:12:00.081Z,16.17
2018-07-08T01:13:00.068Z,16.17
2018-07-08T01:14:00.031Z,16.13
2018-07-08T01:14:59.947Z,16.03
2018-07-08T01:15:59.947Z,16.02
2018-07-08T01:16:59.826Z,16.06
2018-07-08T01:17:59.827Z,16.03
2018-07-08T01:18:59.831Z,16.09
2018-07-08T01:19:59.707Z,16.08
2018-07-08T01:20:59.706Z,16.03
2018-07-08T01:21:59.709Z,16.03
2018-07-08T01:22:59.587Z,15.99
2018-07-08T01:23:59.587Z,16.03
2018-07-08T01:24:59.591Z,15.91
2018-07-08T01:25:59.466Z,15.94
2018-07-08T01:26:59.465Z,15.92
2018-07-08T01:27:59.465Z,15.94
2018-07-08T01:28:59.344Z,15.91
2018-07-08T01:29:59.345Z,15.94
2018-07-08T01:30:59.344Z,15.84
2018-07-08T01:31:59.223Z,15.84
2018-07-08T01:32:59.225Z,15.87
2018-07-08T01:33:59.181Z,15.73
2018-07-08T01:34:59.102Z,15.80
2018-07-08T01:35:59.102Z,15.80
2018-07-08T01:36:58.983Z,15.76
2018-07-08T01:37:58.982Z,15.76
2018-07-08T01:38:58.984Z,15.70
2018-07-08T01:39:58.862Z,15.76
2018-07-08T01:40:58.862Z,15.67
2018-07-08T01:41:58.863Z,15.76
2018-07-08T01:42:58.745Z,15.75
2018-07-08T01:43:58.740Z,15.67
2018-07-08T01:44:58.740Z,15.67
2018-07-08T01:45:58.624Z,15.66
2018-07-08T01:46:58.620Z,15.66
2018-07-08T01:47:58.620Z,15.65
2018-07-08T01:48:58.500Z,15.65
2018-07-08T01:49:58.504Z,15.62
2018-07-08T01:50:58.499Z,15.59
2018-07-08T01:51:58.382Z,15.54
2018-07-08T01:52:58.381Z,15.57
2018-07-08T01:53:58.337Z,15.57
2018-07-08T01:54:58.258Z,15.51
2018-07-08T01:55:58.263Z,15.57
2018-07-08T01:56:58.218Z,15.48
2018-07-08T01:57:58.142Z,15.51
2018-07-08T01:58:58.144Z,15.55
2018-07-08T01:59:58.017Z,15.54
2018-07-08T02:00:58.018Z,15.45
2018-07-08T02:01:58.017Z,15.43
2018-07-08T02:02:57.896Z,15.37
2018-07-08T02:03:57.898Z,15.41
2018-07-08T02:04:57.902Z,15.35
2018-07-08T02:05:57.775Z,15.35
2018-07-08T02:06:57.839Z,15.41
2018-07-08T02:07:57.785Z,15.33
2018-07-08T02:08:57.658Z,15.30
2018-07-08T02:09:57.658Z,15.26
2018-07-08T02:10:57.616Z,15.33
2018-07-08T02:11:57.535Z,15.32
2018-07-08T02:12:57.534Z,15.33
2018-07-08T02:13:57.415Z,15.27
2018-07-08T02:14:57.418Z,15.26
2018-07-08T02:15:57.413Z,15.29
2018-07-08T02:16:57.294Z,15.18
2018-07-08T02:17:57.296Z,15.23
2018-07-08T02:18:57.293Z,15.18
2018-07-08T02:19:57.183Z,15.26
2018-07-08T02:20:57.177Z,15.23
2018-07-08T02:21:57.171Z,15.22
2018-07-08T02:22:57.052Z,15.12
2018-07-08T02:23:57.054Z,15.23
2018-07-08T02:24:57.261Z,15.15
2018-07-08T02:25:57.516Z,15.17
2018-07-08T02:26:56.931Z,15.19
2018-07-08T02:27:57.584Z,15.18
2018-07-08T02:28:57.446Z,15.12
2018-07-08T02:29:56.991Z,15.18
2018-07-08T02:30:56.853Z,15.11
2018-07-08T02:31:56.690Z,15.14
2018-07-08T02:32:56.805Z,15.04
2018-07-08T02:33:56.570Z,15.05
2018-07-08T02:34:56.585Z,15.04
2018-07-08T02:35:56.686Z,15.00
2018-07-08T02:36:56.453Z,15.02
2018-07-08T02:37:56.452Z,14.99
2018-07-08T02:38:56.451Z,14.89
2018-07-08T02:39:56.334Z,14.89
2018-07-08T02:40:56.405Z,14.92
2018-07-08T02:41:56.425Z,14.87
2018-07-08T02:42:56.207Z,14.81
2018-07-08T02:43:56.212Z,14.85
2018-07-08T02:44:56.165Z,14.79
2018-07-08T02:45:56.087Z,14.85
2018-07-08T02:46:56.203Z,14.79
2018-07-08T02:47:55.976Z,14.82
2018-07-08T02:48:55.967Z,14.77
2018-07-08T02:49:56.082Z,14.77
2018-07-08T02:50:56.466Z,14.67
2018-07-08T02:51:55.851Z,14.81
2018-07-08T02:52:55.851Z,14.85
2018-07-08T02:53:55.727Z,14.78
2018-07-08T02:54:55.724Z,14.73
2018-07-08T02:55:55.725Z,14.71
2018-07-08T02:56:55.604Z,14.61
2018-07-08T02:57:55.607Z,14.67
2018-07-08T02:58:55.604Z,14.62
2018-07-08T02:59:55.561Z,14.59
2018-07-08T03:00:55.484Z,14.63
2018-07-08T03:01:55.364Z,14.56
2018-07-08T03:02:55.366Z,14.61
2018-07-08T03:03:55.369Z,14.51
2018-07-08T03:04:55.246Z,14.44
2018-07-08T03:05:55.248Z,14.55
2018-07-08T03:06:55.244Z,14.51
2018-07-08T03:07:55.123Z,14.48
2018-07-08T03:08:55.126Z,14.45
2018-07-08T03:09:55.121Z,14.52
2018-07-08T03:10:55.013Z,14.45
2018-07-08T03:11:55.008Z,14.44
2018-07-08T03:12:55.001Z,14.40
2018-07-08T03:13:54.886Z,14.38
2018-07-08T03:14:54.882Z,14.41
2018-07-08T03:15:54.838Z,14.40
2018-07-08T03:16:54.763Z,14.40
2018-07-08T03:17:54.758Z,14.40
2018-07-08T03:18:54.639Z,14.38
2018-07-08T03:19:54.640Z,14.38
2018-07-08T03:20:54.646Z,14.37
2018-07-08T03:21:54.520Z,14.37
2018-07-08T03:22:54.519Z,14.30
2018-07-08T03:23:54.520Z,14.30
2018-07-08T03:24:54.402Z,14.25
2018-07-08T03:25:54.399Z,14.26
2018-07-08T03:26:54.397Z,14.33
2018-07-08T03:27:54.356Z,14.19
2018-07-08T03:28:54.278Z,14.22
2018-07-08T03:29:54.277Z,14.25
2018-07-08T03:30:54.157Z,14.20
2018-07-08T03:31:54.157Z,14.19
2018-07-08T03:32:54.036Z,14.20
2018-07-08T03:33:54.035Z,14.19
2018-07-08T03:34:54.042Z,14.19
2018-07-08T03:35:53.924Z,14.18
2018-07-08T03:36:53.917Z,14.23
2018-07-08T03:37:53.915Z,14.16
2018-07-08T03:38:53.794Z,14.16
2018-07-08T03:39:53.799Z,14.16
2018-07-08T03:40:53.794Z,14.04
2018-07-08T03:41:53.673Z,14.12
2018-07-08T03:42:53.674Z,14.11
2018-07-08T03:43:53.673Z,14.07
2018-07-08T03:44:53.553Z,14.11
2018-07-08T03:45:53.553Z,14.11
2018-07-08T03:46:53.440Z,14.16
2018-07-08T03:47:53.432Z,14.07
2018-07-08T03:48:53.433Z,14.12
2018-07-08T03:49:53.313Z,14.08
2018-07-08T03:50:53.310Z,14.13
2018-07-08T03:51:53.312Z,14.11
2018-07-08T03:52:53.191Z,14.04
2018-07-08T03:53:53.191Z,14.05
2018-07-08T03:54:53.193Z,14.03
2018-07-08T03:55:53.071Z,14.05
2018-07-08T03:56:53.071Z,14.05
2018-07-08T03:57:53.071Z,14.04
2018-07-08T03:58:52.953Z,14.03
2018-07-08T03:59:52.950Z,14.00
2018-07-08T04:00:52.829Z,14.05
2018-07-08T04:01:52.839Z,14.00
2018-07-08T04:02:52.831Z,14.05
2018-07-08T04:03:52.710Z,14.08
2018-07-08T04:04:52.709Z,14.03
2018-07-08T04:05:52.709Z,14.05
2018-07-08T04:06:52.591Z,14.05
2018-07-08T04:07:52.592Z,14.04
2018-07-08T04:08:52.588Z,14.00
2018-07-08T04:09:52.467Z,14.04
2018-07-08T04:10:52.467Z,14.01
2018-07-08T04:11:52.467Z,14.04
2018-07-08T04:12:52.347Z,14.07
2018-07-08T04:13:52.349Z,14.07
2018-07-08T04:14:52.228Z,14.12
2018-07-08T04:15:52.232Z,14.13
2018-07-08T04:16:52.233Z,14.05
2018-07-08T04:17:52.106Z,14.08
2018-07-08T04:18:52.108Z,14.03
2018-07-08T04:19:52.106Z,14.08
2018-07-08T04:20:51.986Z,14.04
2018-07-08T04:21:51.986Z,14.11
2018-07-08T04:22:51.986Z,14.12
2018-07-08T04:23:51.865Z,14.03
2018-07-08T04:24:51.865Z,14.03
2018-07-08T04:25:51.864Z,14.07
2018-07-08T04:26:51.745Z,14.13
2018-07-08T04:27:51.746Z,14.04
2018-07-08T04:28:51.622Z,14.16
2018-07-08T04:29:51.625Z,14.19
2018-07-08T04:30:51.624Z,14.16
2018-07-08T04:31:51.506Z,14.26
2018-07-08T04:32:51.502Z,14.18
2018-07-08T04:33:51.503Z,14.25
2018-07-08T04:34:51.382Z,14.22
2018-07-08T04:35:51.387Z,14.20
2018-07-08T04:36:51.381Z,14.28
2018-07-08T04:37:51.262Z,14.20
2018-07-08T04:38:51.264Z,14.22
2018-07-08T04:39:51.261Z,14.30
2018-07-08T04:40:51.141Z,14.34
2018-07-08T04:41:51.139Z,14.31
2018-07-08T04:42:51.022Z,14.26
2018-07-08T04:43:51.019Z,14.31
2018-07-08T04:44:51.020Z,14.36
2018-07-08T04:45:50.899Z,14.34
2018-07-08T04:46:50.899Z,14.36
2018-07-08T04:47:50.899Z,14.34
2018-07-08T04:48:50.779Z,14.37
2018-07-08T04:49:50.779Z,14.43
2018-07-08T04:50:50.780Z,14.41
2018-07-08T04:51:50.657Z,14.53
2018-07-08T04:52:50.661Z,14.40
2018-07-08T04:53:50.659Z,14.48
2018-07-08T04:54:50.539Z,14.37
2018-07-08T04:55:50.540Z,14.41
2018-07-08T04:56:50.417Z,14.48
2018-07-08T04:57:50.418Z,14.52
2018-07-08T04:58:50.416Z,14.49
2018-07-08T04:59:50.297Z,14.66
2018-07-08T05:00:50.318Z,14.59
2018-07-08T05:01:50.295Z,14.63
2018-07-08T05:02:50.180Z,14.62
2018-07-08T05:03:50.179Z,14.73
2018-07-08T05:04:50.182Z,14.62
2018-07-08T05:05:50.056Z,14.70
2018-07-08T05:06:50.057Z,14.82
2018-07-08T05:07:50.901Z,14.74
2018-07-08T05:08:49.941Z,14.74
2018-07-08T05:09:49.933Z,14.77
2018-07-08T05:10:49.892Z,14.81
2018-07-08T05:11:49.814Z,14.82
2018-07-08T05:12:49.815Z,14.78
2018-07-08T05:13:49.697Z,14.86
2018-07-08T05:14:49.696Z,14.90
2018-07-08T05:15:49.693Z,15.02
2018-07-08T05:16:49.572Z,15.05
2018-07-08T05:17:49.573Z,15.00
2018-07-08T05:18:49.573Z,15.07
2018-07-08T05:19:49.456Z,14.99
2018-07-08T05:20:49.453Z,15.04
2018-07-08T05:21:49.452Z,15.11
2018-07-08T05:22:49.333Z,15.08
2018-07-08T05:23:49.333Z,15.14
2018-07-08T05:24:49.331Z,15.12
2018-07-08T05:25:49.211Z,15.08
2018-07-08T05:26:49.220Z,15.23
2018-07-08T05:27:49.093Z,15.23
2018-07-08T05:28:49.090Z,15.17
2018-07-08T05:29:49.145Z,15.18
2018-07-08T05:30:48.976Z,15.29
2018-07-08T05:31:48.974Z,15.37
2018-07-08T05:32:48.976Z,15.32
2018-07-08T05:33:48.850Z,15.35
2018-07-08T05:34:48.851Z,15.36
2018-07-08T05:35:48.857Z,15.41
2018-07-08T05:36:48.728Z,15.52
2018-07-08T05:37:48.730Z,15.51
2018-07-08T05:38:48.737Z,15.45
2018-07-08T05:39:48.611Z,15.52
2018-07-08T05:40:48.606Z,15.54
2018-07-08T05:41:48.610Z,15.51
2018-07-08T05:42:48.487Z,15.62
2018-07-08T05:43:48.489Z,15.66
2018-07-08T05:44:48.367Z,15.70
2018-07-08T05:45:48.367Z,15.72
2018-07-08T05:46:48.366Z,15.76
2018-07-08T05:47:48.246Z,15.73
2018-07-08T05:48:48.253Z,15.73
2018-07-08T05:49:48.245Z,15.76
2018-07-08T05:50:48.129Z,15.84
2018-07-08T05:51:48.125Z,15.76
2018-07-08T05:52:48.127Z,15.90
2018-07-08T05:53:48.005Z,15.91
2018-07-08T05:54:48.010Z,15.91
2018-07-08T05:55:48.005Z,15.90
2018-07-08T05:56:47.893Z,15.98
2018-07-08T05:57:47.883Z,15.99
2018-07-08T05:58:47.888Z,16.02
2018-07-08T05:59:47.763Z,16.00
2018-07-08T06:00:47.765Z,16.10
2018-07-08T06:01:47.720Z,16.13
2018-07-08T06:02:47.644Z,16.16
2018-07-08T06:03:47.645Z,16.13
2018-07-08T06:04:47.525Z,16.28
2018-07-08T06:05:47.523Z,16.16
2018-07-08T06:06:47.523Z,16.18
2018-07-08T06:07:47.401Z,16.13
2018-07-08T06:08:51.252Z,16.28
2018-07-08T06:09:47.401Z,16.26
2018-07-08T06:10:47.285Z,16.21
2018-07-08T06:11:47.287Z,16.26
2018-07-08T06:12:47.282Z,16.34
2018-07-08T06:13:47.164Z,16.37
2018-07-08T06:14:47.163Z,16.40
2018-07-08T06:15:47.160Z,16.43
2018-07-08T06:16:47.090Z,16.47
2018-07-08T06:17:47.043Z,16.57
2018-07-08T06:18:47.039Z,16.55
2018-07-08T06:19:46.960Z,16.62
2018-07-08T06:20:46.921Z,16.66
2018-07-08T06:21:46.880Z,16.68
2018-07-08T06:22:46.799Z,16.72
2018-07-08T06:23:46.798Z,16.77
2018-07-08T06:24:46.680Z,16.79
2018-07-08T06:25:46.678Z,16.83
2018-07-08T06:26:46.683Z,16.84
2018-07-08T06:27:46.558Z,16.84
2018-07-08T06:28:46.556Z,16.86
2018-07-08T06:29:46.556Z,17.01
2018-07-08T06:30:46.439Z,17.07
2018-07-08T06:31:46.499Z,17.07
2018-07-08T06:32:46.436Z,17.09
2018-07-08T06:33:46.317Z,17.23
2018-07-08T06:34:46.320Z,17.27
2018-07-08T06:35:46.319Z,17.30
2018-07-08T06:36:46.194Z,17.35
2018-07-08T06:37:46.199Z,17.32
2018-07-08T06:38:46.198Z,17.41
2018-07-08T06:39:46.078Z,17.42
2018-07-08T06:40:46.081Z,17.49
2018-07-08T06:41:46.076Z,17.41
2018-07-08T06:42:45.955Z,17.56
2018-07-08T06:43:45.952Z,17.59
2018-07-08T06:44:45.950Z,17.63
2018-07-08T06:45:45.834Z,17.69
2018-07-08T06:46:45.833Z,17.78
2018-07-08T06:47:45.721Z,17.72
2018-07-08T06:48:45.712Z,17.82
2018-07-08T06:49:45.717Z,17.87
2018-07-08T06:50:45.594Z,17.86
2018-07-08T06:51:45.592Z,17.90
2018-07-08T06:52:45.593Z,17.93
2018-07-08T06:53:45.472Z,17.93
2018-07-08T06:54:45.472Z,17.97
2018-07-08T06:55:45.478Z,18.00
2018-07-08T06:56:45.350Z,18.08
2018-07-08T06:57:45.390Z,18.09
2018-07-08T06:58:45.351Z,18.06
2018-07-08T06:59:45.231Z,18.06
2018-07-08T07:00:45.231Z,18.06
2018-07-08T07:01:45.230Z,18.19
2018-07-08T07:02:45.116Z,18.08
2018-07-08T07:03:45.113Z,18.15
2018-07-08T07:04:45.124Z,18.21
2018-07-08T07:05:44.989Z,18.28
2018-07-08T07:06:45.052Z,18.36
2018-07-08T07:07:44.990Z,18.36
2018-07-08T07:08:44.868Z,18.37
2018-07-08T07:09:44.871Z,18.41
2018-07-08T07:10:44.867Z,18.43
2018-07-08T07:11:44.746Z,18.41
2018-07-08T07:12:44.749Z,18.46
2018-07-08T07:13:44.749Z,18.51
2018-07-08T07:14:44.627Z,18.48
2018-07-08T07:15:44.630Z,18.51
2018-07-08T07:16:44.586Z,18.49
2018-07-08T07:17:44.505Z,18.53
2018-07-08T07:18:44.506Z,18.58
2018-07-08T07:19:44.386Z,18.60
2018-07-08T07:20:44.387Z,18.66
2018-07-08T07:21:44.385Z,18.51
2018-07-08T07:22:44.266Z,18.64
2018-07-08T07:23:44.265Z,18.61
2018-07-08T07:24:44.263Z,18.68
2018-07-08T07:25:44.144Z,18.70
2018-07-08T07:26:44.146Z,18.81
2018-07-08T07:27:44.143Z,18.74
2018-07-08T07:28:44.032Z,18.81
2018-07-08T07:29:44.028Z,18.81
2018-07-08T07:30:44.023Z,18.81
2018-07-08T07:31:43.902Z,18.92
2018-07-08T07:32:43.908Z,18.86
2018-07-08T07:33:43.901Z,18.88
2018-07-08T07:34:43.782Z,18.97
2018-07-08T07:35:43.782Z,18.94
2018-07-08T07:36:43.781Z,19.00
2018-07-08T07:37:43.664Z,18.97
2018-07-08T07:38:43.666Z,19.08
2018-07-08T07:39:43.665Z,19.05
2018-07-08T07:40:43.541Z,19.15
2018-07-08T07:41:43.547Z,19.11
2018-07-08T07:42:43.542Z,19.16
2018-07-08T07:43:43.421Z,19.20
2018-07-08T07:44:43.421Z,19.30
2018-07-08T07:45:43.420Z,19.26
2018-07-08T07:46:43.298Z,19.37
2018-07-08T07:47:43.303Z,19.34
2018-07-08T07:48:43.301Z,19.44
2018-07-08T07:49:43.178Z,19.38
2018-07-08T07:50:43.180Z,19.45
2018-07-08T07:51:43.178Z,19.42
2018-07-08T07:52:43.065Z,19.48
2018-07-08T07:53:43.058Z,19.52
2018-07-08T07:54:43.057Z,19.56
2018-07-08T07:55:42.937Z,19.53
2018-07-08T07:56:42.939Z,19.55
2018-07-08T07:57:42.935Z,19.60
2018-07-08T07:58:42.818Z,19.70
2018-07-08T07:59:42.822Z,19.70
2018-07-08T08:00:42.819Z,19.82
2018-07-08T08:01:42.695Z,19.81
2018-07-08T08:02:42.705Z,19.84
2018-07-08T08:03:42.695Z,19.87
2018-07-08T08:04:42.577Z,19.90
2018-07-08T08:05:42.578Z,20.00
2018-07-08T08:06:42.583Z,20.12
2018-07-08T08:07:42.456Z,20.10
2018-07-08T08:08:42.460Z,20.22
2018-07-08T08:09:42.454Z,20.18
2018-07-08T08:10:42.397Z,20.33
2018-07-08T08:11:42.337Z,20.33
2018-07-08T08:12:42.341Z,20.39
2018-07-08T08:13:42.215Z,20.44
2018-07-08T08:14:42.218Z,20.58
2018-07-08T08:15:42.213Z,20.66
2018-07-08T08:16:42.092Z,20.73
2018-07-08T08:17:42.092Z,20.77
2018-07-08T08:18:42.054Z,20.86
2018-07-08T08:19:41.975Z,21.01
2018-07-08T08:20:41.974Z,21.04
2018-07-08T08:21:41.971Z,21.11
2018-07-08T08:22:41.850Z,21.22
2018-07-08T08:23:41.851Z,21.37
2018-07-08T08:24:41.850Z,21.33
2018-07-08T08:25:41.731Z,21.41
2018-07-08T08:26:41.788Z,21.50
2018-07-08T08:27:41.732Z,21.63
2018-07-08T08:28:41.610Z,21.66
2018-07-08T08:29:41.610Z,21.68
2018-07-08T08:30:41.612Z,21.78
2018-07-08T08:31:41.490Z,21.96
2018-07-08T08:32:41.502Z,21.97
2018-07-08T08:33:41.490Z,22.04
2018-07-08T08:34:41.370Z,22.10
2018-07-08T08:35:41.370Z,22.19
2018-07-08T08:36:41.370Z,22.25
2018-07-08T08:37:41.245Z,22.22
2018-07-08T08:38:41.246Z,22.36
2018-07-08T08:39:41.249Z,22.37
2018-07-08T08:40:41.128Z,22.49
2018-07-08T08:41:41.126Z,22.52
2018-07-08T08:42:41.128Z,22.46
2018-07-08T08:43:41.006Z,22.65
2018-07-08T08:44:41.006Z,22.63
2018-07-08T08:45:41.008Z,22.70
2018-07-08T08:46:40.887Z,22.77
2018-07-08T08:47:40.884Z,22.80
2018-07-08T08:48:40.883Z,22.89
2018-07-08T08:49:40.767Z,22.96
2018-07-08T08:50:40.764Z,23.02
2018-07-08T08:51:40.763Z,23.14
2018-07-08T08:52:40.642Z,23.13
2018-07-08T08:53:40.650Z,23.26
2018-07-08T08:54:40.645Z,23.25
2018-07-08T08:55:40.521Z,23.29
2018-07-08T08:56:40.524Z,23.40
2018-07-08T08:57:40.527Z,23.45
2018-07-08T08:58:40.403Z,23.55
2018-07-08T08:59:40.403Z,23.67
2018-07-08T09:00:40.404Z,23.71
2018-07-08T09:01:40.281Z,23.82
2018-07-08T09:02:40.283Z,23.84
2018-07-08T09:03:40.324Z,23.85
2018-07-08T09:04:40.161Z,23.95
2018-07-08T09:05:40.159Z,23.96
2018-07-08T09:06:40.159Z,24.09
2018-07-08T09:07:40.167Z,24.11
2018-07-08T09:08:40.042Z,24.14
2018-07-08T09:09:40.040Z,24.21
2018-07-08T09:10:40.061Z,24.26
2018-07-08T09:11:39.919Z,24.34
2018-07-08T09:12:39.919Z,24.55
2018-07-08T09:13:39.921Z,24.63
2018-07-08T09:14:39.798Z,24.69
2018-07-08T09:15:39.874Z,24.89
2018-07-08T09:16:39.801Z,24.92
2018-07-08T09:17:39.679Z,24.99
2018-07-08T09:18:39.677Z,25.16
2018-07-08T09:19:39.679Z,25.26
2018-07-08T09:20:39.557Z,25.30
2018-07-08T09:21:39.554Z,25.39
2018-07-08T09:22:39.558Z,25.59
2018-07-08T09:23:39.455Z,25.55
2018-07-08T09:24:39.437Z,25.71
2018-07-08T09:25:39.446Z,25.83
2018-07-08T09:26:39.393Z,25.93
2018-07-08T09:27:39.315Z,26.04
2018-07-08T09:28:39.315Z,26.16
2018-07-08T09:29:39.325Z,26.18
2018-07-08T09:30:39.198Z,26.24
2018-07-08T09:31:39.201Z,26.23
2018-07-08T09:32:39.193Z,26.42
2018-07-08T09:33:39.080Z,26.44
2018-07-08T09:34:39.076Z,26.52
2018-07-08T09:35:39.073Z,26.56
2018-07-08T09:36:38.953Z,26.67
2018-07-08T09:37:38.954Z,26.78
2018-07-08T09:38:39.026Z,26.81
2018-07-08T09:39:38.832Z,26.89
2018-07-08T09:40:38.839Z,26.97
2018-07-08T09:41:38.833Z,26.98
2018-07-08T09:42:38.830Z,26.97
2018-07-08T09:43:38.710Z,27.01
2018-07-08T09:44:38.711Z,27.00
2018-07-08T09:45:38.711Z,27.01
2018-07-08T09:46:38.592Z,27.13
2018-07-08T09:47:38.590Z,27.18
2018-07-08T09:48:38.592Z,27.20
2018-07-08T09:49:38.471Z,27.11
2018-07-08T09:50:38.473Z,27.19
2018-07-08T09:51:38.470Z,27.20
2018-07-08T09:52:38.430Z,27.18
2018-07-08T09:53:38.352Z,27.35
2018-07-08T09:54:38.351Z,27.40
2018-07-08T09:55:38.348Z,27.50
2018-07-08T09:56:38.229Z,27.66
2018-07-08T09:57:38.227Z,27.68
2018-07-08T09:58:38.228Z,27.76
2018-07-08T09:59:38.105Z,27.83
2018-07-08T10:00:38.107Z,27.88
2018-07-08T10:01:38.114Z,27.93
2018-07-08T10:02:37.989Z,27.91
2018-07-08T10:03:37.985Z,27.94
2018-07-08T10:04:38.040Z,27.94
2018-07-08T10:05:37.991Z,28.08
2018-07-08T10:06:37.872Z,28.08
2018-07-08T10:07:37.870Z,28.18
2018-07-08T10:08:37.912Z,28.20
2018-07-08T10:09:37.745Z,28.15
2018-07-08T10:10:37.745Z,28.20
2018-07-08T10:11:37.749Z,28.28
2018-07-08T10:12:37.703Z,28.28
2018-07-08T10:13:37.627Z,28.19
2018-07-08T10:14:37.628Z,28.09
2018-07-08T10:15:37.622Z,28.03
2018-07-08T10:16:37.506Z,28.04
2018-07-08T10:17:37.573Z,28.23
2018-07-08T10:18:37.510Z,28.19
2018-07-08T10:19:37.562Z,28.20
2018-07-08T10:20:37.382Z,28.19
2018-07-08T10:21:37.383Z,28.22
2018-07-08T10:22:37.341Z,28.33
2018-07-08T10:23:37.260Z,28.45
2018-07-08T10:24:37.263Z,28.34
2018-07-08T10:25:37.266Z,28.50
2018-07-08T10:26:37.140Z,28.41
2018-07-08T10:27:37.140Z,28.50
2018-07-08T10:28:37.140Z,28.40
2018-07-08T10:29:37.018Z,28.46
2018-07-08T10:30:37.024Z,28.57
2018-07-08T10:31:37.020Z,28.62
2018-07-08T10:32:37.023Z,28.67
2018-07-08T10:33:36.898Z,28.70
2018-07-08T10:34:36.899Z,28.71
2018-07-08T10:35:36.899Z,28.78
2018-07-08T10:36:36.874Z,28.87
2018-07-08T10:37:36.777Z,28.92
2018-07-08T10:38:36.783Z,29.06
2018-07-08T10:39:36.735Z,29.12
2018-07-08T10:40:36.673Z,29.09
2018-07-08T10:41:36.658Z,29.06
2018-07-08T10:43:36.536Z,29.13
2018-07-08T10:44:36.536Z,29.27
2018-07-08T10:45:36.538Z,29.30
2018-07-08T10:46:36.621Z,29.34
2018-07-08T10:47:36.417Z,29.42
2018-07-08T10:48:36.418Z,29.40
2018-07-08T10:49:36.415Z,29.43
2018-07-08T10:50:36.294Z,29.16
2018-07-08T10:51:36.296Z,29.16
2018-07-08T10:52:36.294Z,29.25
2018-07-08T10:53:36.175Z,29.32
2018-07-08T10:54:36.174Z,29.06
2018-07-08T10:55:36.175Z,29.06
2018-07-08T10:56:36.171Z,29.10
2018-07-08T10:57:36.054Z,29.03
2018-07-08T10:58:36.057Z,29.05
2018-07-08T10:59:36.057Z,29.21
2018-07-08T11:00:35.932Z,29.28
2018-07-08T11:01:35.931Z,29.22
2018-07-08T11:02:35.935Z,29.35
2018-07-08T11:03:35.813Z,29.22
2018-07-08T11:04:35.812Z,29.13
2018-07-08T11:05:35.816Z,29.09
2018-07-08T11:06:35.813Z,29.16
2018-07-08T11:07:35.691Z,29.28
2018-07-08T11:08:35.691Z,29.39
2018-07-08T11:09:35.690Z,29.39
2018-07-08T11:10:35.575Z,29.53
2018-07-08T11:11:35.569Z,29.53
2018-07-08T11:12:35.567Z,29.61
2018-07-08T11:13:35.569Z,29.73
2018-07-08T11:14:35.451Z,29.74
2018-07-08T11:15:35.448Z,29.86
2018-07-08T11:16:35.447Z,29.86
2018-07-08T11:17:35.330Z,29.94
2018-07-08T11:18:35.327Z,29.90
2018-07-08T11:19:35.330Z,29.77
2018-07-08T11:20:35.357Z,29.69
2018-07-08T11:21:35.219Z,29.83
2018-07-08T11:22:35.209Z,29.92
2018-07-08T11:23:35.207Z,29.96
2018-07-08T11:24:35.087Z,30.14
2018-07-08T11:25:35.084Z,30.18
2018-07-08T11:26:35.096Z,30.21
2018-07-08T11:27:34.968Z,30.24
2018-07-08T11:28:35.024Z,30.32
2018-07-08T11:29:34.967Z,30.27
2018-07-08T11:30:34.964Z,30.23
2018-07-08T11:31:34.844Z,30.31
2018-07-08T11:32:34.843Z,30.32
2018-07-08T11:33:34.843Z,30.40
2018-07-08T11:34:34.726Z,30.33
2018-07-08T11:35:34.726Z,30.29
2018-07-08T11:36:34.727Z,30.24
2018-07-08T11:37:34.726Z,30.40
2018-07-08T11:38:34.605Z,30.43
2018-07-08T11:39:34.607Z,30.52
2018-07-08T11:40:34.605Z,30.63
2018-07-08T11:41:34.481Z,30.70
2018-07-08T11:42:34.482Z,30.65
2018-07-08T11:43:34.485Z,30.80
2018-07-08T11:44:34.484Z,30.88
2018-07-08T11:45:34.365Z,30.99
2018-07-08T11:46:34.360Z,30.88
2018-07-08T11:47:34.364Z,30.96
2018-07-08T11:48:34.241Z,30.67
2018-07-08T11:49:34.240Z,30.62
2018-07-08T11:50:34.243Z,30.61
2018-07-08T11:51:34.238Z,30.70
2018-07-08T11:52:34.119Z,30.65
2018-07-08T11:53:34.124Z,30.62
2018-07-08T11:54:34.198Z,30.61
2018-07-08T11:55:34.000Z,30.52
2018-07-08T11:56:33.998Z,30.51
2018-07-08T11:57:34.000Z,30.32
2018-07-08T11:58:34.009Z,30.24
2018-07-08T11:59:33.883Z,30.10
2018-07-08T12:00:33.879Z,29.89
2018-07-08T12:01:33.884Z,29.84
2018-07-08T12:02:33.762Z,29.95
2018-07-08T12:03:33.756Z,29.96
2018-07-08T12:04:33.756Z,30.06
2018-07-08T12:05:33.756Z,30.21
2018-07-08T12:06:33.650Z,30.18
2018-07-08T12:07:33.641Z,30.44
2018-07-08T12:08:33.635Z,30.52
2018-07-08T12:09:33.518Z,30.63
2018-07-08T12:10:33.515Z,30.61
2018-07-08T12:11:33.518Z,30.62
2018-07-08T12:12:33.516Z,30.69
2018-07-08T12:14:33.442Z,30.93
2018-07-08T12:15:33.394Z,31.04
2018-07-08T12:16:33.274Z,31.11
2018-07-08T12:17:33.280Z,31.14
2018-07-08T12:18:33.287Z,31.20
2018-07-08T12:19:33.272Z,31.33
2018-07-08T12:20:33.158Z,31.30
2018-07-08T12:21:33.156Z,31.36
2018-07-08T12:22:33.158Z,31.59
2018-07-08T12:23:33.033Z,31.57
2018-07-08T12:24:33.036Z,31.62
2018-07-08T12:25:33.035Z,31.67
2018-07-08T12:26:33.031Z,31.62
2018-07-08T12:27:32.923Z,31.69
2018-07-08T12:28:32.988Z,31.69
2018-07-08T12:29:32.986Z,31.72
2018-07-08T12:30:32.873Z,31.70
2018-07-08T12:31:32.790Z,31.70
2018-07-08T12:32:32.789Z,31.69
2018-07-08T12:33:32.789Z,31.72
2018-07-08T12:34:32.670Z,31.67
2018-07-08T12:35:32.668Z,31.55
2018-07-08T12:36:32.670Z,31.54
2018-07-08T12:37:32.671Z,31.54
2018-07-08T12:38:32.552Z,31.45
2018-07-08T12:39:32.552Z,31.33
2018-07-08T12:40:32.548Z,31.17
2018-07-08T12:41:32.427Z,31.08
2018-07-08T12:42:32.427Z,30.95
2018-07-08T12:43:32.427Z,30.95
2018-07-08T12:44:32.525Z,30.92
2018-07-08T12:45:32.305Z,30.89
2018-07-08T12:46:32.314Z,30.88
2018-07-08T12:47:32.305Z,30.81
2018-07-08T12:48:32.304Z,30.80
2018-07-08T12:49:32.185Z,30.73
2018-07-08T12:50:32.185Z,30.76
2018-07-08T12:51:32.185Z,30.76
2018-07-08T12:52:32.066Z,30.67
2018-07-08T12:53:32.064Z,30.63